Time;durP1;ratioP1;P1;durP2;ratioP2;P2;SDS_P1;SDS_P2;PMS_P1;PMS_P2;Temp;Humidity;BMP_temperature;BMP_pressure;BME280_temperature;BME280_humidity;BME280_pressure;Samples;Min_cycle;Max_cycle;Signal;HPM_P1;HPM_P2
2021/10/19 00:00:03;;;;;;;12.27;8.07;;;;;;;7.08;67.07;99962.48;1692802;84;21147;-37
2021/10/19 00:02:31;;;;;;;10.55;7.65;;;;;;;7.07;67.05;99967.67;1690790;84;21000;-37
2021/10/19 00:04:58;;;;;;;12.95;7.78;;;;;;;7.05;67.13;99971.23;1692363;84;21092;-37
2021/10/19 00:07:24;;;;;;;13.68;8.48;;;;;;;7.08;67.35;99971.37;1692093;84;21000;-37
2021/10/19 00:09:51;;;;;;;11.43;8.15;;;;;;;7.04;67.53;99971.78;1692624;84;21049;-37
2021/10/19 00:12:17;;;;;;;10.98;8.10;;;;;;;6.99;67.69;99969.25;1692226;84;21787;-37
2021/10/19 00:14:45;;;;;;;15.80;8.80;;;;;;;6.97;67.64;99978.23;1692210;84;21020;-37
2021/10/19 00:17:12;;;;;;;16.90;8.95;;;;;;;6.89;67.62;99975.77;1692149;84;21078;-37
2021/10/19 00:19:39;;;;;;;15.15;7.78;;;;;;;6.85;67.67;99978.08;1692541;84;21022;-37
2021/10/19 00:22:06;;;;;;;11.50;7.28;;;;;;;6.84;67.62;99979.98;1692337;84;21494;-37
2021/10/19 00:24:32;;;;;;;12.58;7.20;;;;;;;6.85;67.51;99982.12;1692522;84;21126;-37
2021/10/19 00:26:59;;;;;;;11.85;7.55;;;;;;;6.87;67.58;99975.87;1692619;84;21543;-37
2021/10/19 00:29:26;;;;;;;14.18;8.80;;;;;;;6.84;67.56;99982.67;1676741;84;21404;-37
2021/10/19 00:31:54;;;;;;;13.62;8.25;;;;;;;6.80;67.63;99979.59;1692781;84;20964;-37
2021/10/19 00:34:21;;;;;;;13.68;8.08;;;;;;;6.78;67.67;99977.20;1692530;84;21622;-37
2021/10/19 00:36:47;;;;;;;14.45;8.95;;;;;;;6.76;67.66;99980.00;1686567;84;21153;-37
2021/10/19 00:39:16;;;;;;;12.37;7.22;;;;;;;6.74;67.63;99987.59;1692076;84;21072;-37
2021/10/19 00:41:43;;;;;;;9.75;6.90;;;;;;;6.77;67.41;99981.58;1692495;84;21045;-37
2021/10/19 00:44:09;;;;;;;12.18;7.60;;;;;;;6.79;67.41;99979.34;1692444;84;21064;-37
2021/10/19 00:46:38;;;;;;;15.98;7.90;;;;;;;6.81;67.50;99989.27;1692278;84;22096;-37
2021/10/19 00:49:04;;;;;;;11.33;8.03;;;;;;;6.81;67.41;99983.32;1692403;84;21133;-37
2021/10/19 00:51:32;;;;;;;11.43;7.92;;;;;;;6.86;67.38;99984.50;1689582;84;21547;-37
2021/10/19 00:53:59;;;;;;;19.65;8.35;;;;;;;6.88;67.31;99988.20;1687049;85;20997;-37
2021/10/19 00:56:26;;;;;;;13.35;8.68;;;;;;;6.90;67.21;99985.45;1686978;84;21540;-37
2021/10/19 00:58:52;;;;;;;13.65;8.38;;;;;;;6.90;67.01;99988.70;1686954;85;21808;-37
2021/10/19 01:01:19;;;;;;;11.75;7.60;;;;;;;6.86;67.05;99987.75;1686810;85;21162;-37
2021/10/19 01:03:47;;;;;;;16.50;7.42;;;;;;;6.89;66.77;99989.80;1687162;85;21079;-37
2021/10/19 01:06:14;;;;;;;11.73;6.80;;;;;;;6.91;66.57;99988.38;1734613;82;21041;-37
2021/10/19 01:08:41;;;;;;;13.48;7.90;;;;;;;6.87;66.78;99992.03;1734464;82;21013;-37
2021/10/19 01:11:07;;;;;;;11.40;7.55;;;;;;;6.79;66.96;99992.82;1734781;82;21061;-37
2021/10/19 01:13:36;;;;;;;12.68;8.18;;;;;;;6.69;67.16;99997.18;1734616;82;20934;-37
2021/10/19 01:16:08;;;;;;;15.13;8.28;;;;;;;6.59;67.32;99994.25;1734702;82;21074;-37
2021/10/19 01:18:35;;;;;;;12.65;8.58;;;;;;;6.51;67.50;100000.44;1735009;82;21025;-37
2021/10/19 01:21:02;;;;;;;13.08;8.03;;;;;;;6.44;67.70;99998.76;1735070;82;21041;-37
2021/10/19 01:23:30;;;;;;;12.30;6.65;;;;;;;6.42;67.78;99999.09;1734760;82;21025;-37
2021/10/19 01:25:59;;;;;;;10.63;7.25;;;;;;;6.44;67.71;99996.86;1734879;82;21871;-37
2021/10/19 01:28:26;;;;;;;13.50;7.87;;;;;;;6.44;67.66;100004.94;1735164;82;21049;-37
2021/10/19 01:30:54;;;;;;;10.98;7.30;;;;;;;6.37;67.71;100004.64;1735118;82;21053;-37
2021/10/19 01:33:21;;;;;;;11.75;7.87;;;;;;;6.29;67.80;100002.73;1734293;82;21057;-37
2021/10/19 01:35:47;;;;;;;13.20;7.92;;;;;;;6.23;67.94;100006.68;1734507;82;21024;-37
2021/10/19 01:38:20;;;;;;;12.47;8.00;;;;;;;6.18;67.99;100008.17;1734512;82;21050;-37
2021/10/19 01:40:47;;;;;;;10.75;6.97;;;;;;;6.13;68.02;100013.70;1733669;82;21029;-37
2021/10/19 01:43:18;;;;;;;10.43;7.80;;;;;;;6.13;67.98;100006.97;1734834;82;20926;-37
2021/10/19 01:45:51;;;;;;;12.70;7.75;;;;;;;6.14;68.00;100012.61;1734558;82;20974;-37
2021/10/19 01:48:18;;;;;;;12.90;7.95;;;;;;;6.10;67.95;100009.72;1734881;82;21112;-37
2021/10/19 01:50:45;;;;;;;14.18;8.40;;;;;;;6.07;67.94;100015.75;1734521;82;21106;-37
2021/10/19 01:53:11;;;;;;;15.88;8.95;;;;;;;6.02;67.89;100020.48;1734634;82;21010;-37
2021/10/19 01:55:39;;;;;;;15.45;8.28;;;;;;;5.95;67.89;100015.57;1734432;82;21088;-37
2021/10/19 01:58:06;;;;;;;13.00;7.78;;;;;;;5.86;67.99;100016.59;1733250;82;21013;-37
2021/10/19 02:00:33;;;;;;;12.30;7.65;;;;;;;5.83;68.00;100014.53;1732284;81;21539;-37
2021/10/19 02:03:06;;;;;;;11.35;7.22;;;;;;;5.84;68.07;100018.81;1732191;82;21087;-37
2021/10/19 02:05:33;;;;;;;12.13;7.00;;;;;;;5.83;68.03;100026.09;1732127;82;20982;-37
2021/10/19 02:08:03;;;;;;;12.98;8.70;;;;;;;5.77;68.07;100018.46;1732582;82;20986;-37
2021/10/19 02:10:34;;;;;;;11.25;8.25;;;;;;;5.70;68.22;100025.66;1732257;82;21053;-37
2021/10/19 02:13:02;;;;;;;13.45;8.00;;;;;;;5.66;68.23;100022.77;1732551;82;21081;-38
2021/10/19 02:15:30;;;;;;;13.10;8.18;;;;;;;5.62;68.16;100028.53;1732078;82;21061;-37
2021/10/19 02:17:58;;;;;;;12.28;7.60;;;;;;;5.57;68.28;100031.36;1732492;82;21005;-37
2021/10/19 02:20:24;;;;;;;14.50;6.92;;;;;;;5.58;68.21;100034.84;1732276;82;21084;-37
2021/10/19 02:22:53;;;;;;;10.80;7.05;;;;;;;5.58;68.03;100036.98;1732504;82;21492;-37
2021/10/19 02:25:20;;;;;;;11.73;7.72;;;;;;;5.61;67.99;100043.66;1732261;82;21035;-37
2021/10/19 02:27:47;;;;;;;15.63;7.78;;;;;;;5.59;68.02;100041.27;1732715;82;21125;-37
2021/10/19 02:30:14;;;;;;;10.70;7.10;;;;;;;5.58;67.92;100045.60;1732472;82;20951;-37
2021/10/19 02:32:43;;;;;;;10.50;7.62;;;;;;;5.55;67.78;100047.03;1732752;82;21574;-37
2021/10/19 02:35:11;;;;;;;12.30;7.45;;;;;;;5.52;67.68;100051.66;1732319;82;21050;-37
2021/10/19 02:37:39;;;;;;;13.25;7.28;;;;;;;5.44;67.70;100058.34;1732620;82;21042;-37
2021/10/19 02:40:08;;;;;;;11.00;6.65;;;;;;;5.34;67.82;100058.05;1732206;82;21166;-37
2021/10/19 02:42:35;;;;;;;11.08;6.37;;;;;;;5.28;67.97;100064.65;1732603;82;21500;-36
2021/10/19 02:45:04;;;;;;;9.55;6.47;;;;;;;5.31;68.12;100060.57;1732147;81;21042;-37
2021/10/19 02:47:31;;;;;;;13.03;7.33;;;;;;;5.32;68.22;100065.65;1732604;82;21695;-36
2021/10/19 02:49:58;;;;;;;13.18;7.35;;;;;;;5.30;68.31;100063.80;1732108;82;21049;-37
2021/10/19 02:52:26;;;;;;;12.18;7.35;;;;;;;5.27;68.33;100069.80;1732087;82;22169;-36
2021/10/19 02:54:52;;;;;;;12.13;7.60;;;;;;;5.24;68.29;100073.09;1732287;82;20938;-37
2021/10/19 02:57:19;;;;;;;12.03;6.92;;;;;;;5.17;68.50;100078.91;1735467;82;21025;-37
2021/10/19 02:59:46;;;;;;;10.58;6.75;;;;;;;5.12;68.65;100078.23;1751043;82;21012;-36
2021/10/19 03:02:13;;;;;;;9.05;6.15;;;;;;;5.08;68.78;100075.34;1750770;81;21028;-37
2021/10/19 03:04:40;;;;;;;11.75;6.58;;;;;;;5.15;68.80;100082.98;1750981;82;21145;-37
2021/10/19 03:07:06;;;;;;;11.20;6.50;;;;;;;5.21;68.78;100085.26;1750861;82;21547;-37
2021/10/19 03:09:33;;;;;;;13.38;7.35;;;;;;;5.18;68.74;100081.82;1750817;81;20941;-37
2021/10/19 03:12:43;;;;;;;11.12;7.33;;;;;;;5.17;68.90;100080.80;1835964;78;22396;-36
2021/10/19 03:15:10;;;;;;;11.03;7.25;;;;;;;5.04;68.88;100075.71;1805845;79;20959;-36
2021/10/19 03:17:36;;;;;;;11.88;6.70;;;;;;;5.01;69.02;100074.19;1806070;79;21778;-36
2021/10/19 03:20:06;;;;;;;10.08;6.20;;;;;;;5.01;68.97;100071.51;1805864;79;20939;-36
2021/10/19 03:22:32;;;;;;;12.68;7.10;;;;;;;5.03;68.96;100080.07;1805840;79;20900;-36
2021/10/19 03:24:59;;;;;;;11.30;7.33;;;;;;;5.04;68.99;100074.91;1806034;79;20959;-36
2021/10/19 03:27:26;;;;;;;11.30;7.20;;;;;;;5.01;69.10;100082.25;1805781;79;20958;-36
2021/10/19 03:29:52;;;;;;;13.60;7.95;;;;;;;4.99;69.09;100089.81;1805931;79;21181;-36
2021/10/19 03:32:19;;;;;;;11.45;7.25;;;;;;;4.95;69.02;100091.52;1805851;79;20994;-36
2021/10/19 03:34:45;;;;;;;13.32;7.10;;;;;;;4.92;69.14;100093.48;1805844;79;20997;-36
2021/10/19 03:37:12;;;;;;;12.80;7.28;;;;;;;4.90;68.95;100088.95;1806052;79;20966;-36
2021/10/19 03:39:39;;;;;;;10.48;6.67;;;;;;;4.88;69.04;100092.51;1806087;79;21030;-36
2021/10/19 03:42:06;;;;;;;12.10;7.30;;;;;;;4.90;69.17;100091.64;1806112;79;21174;-36
2021/10/19 03:44:33;;;;;;;11.38;8.00;;;;;;;4.89;69.18;100086.05;1805961;79;21015;-36
2021/10/19 03:46:59;;;;;;;11.48;7.65;;;;;;;4.86;69.24;100085.29;1806206;79;20975;-36
2021/10/19 03:49:28;;;;;;;10.48;7.87;;;;;;;4.79;69.21;100091.10;1805916;79;21003;-36
2021/10/19 03:51:55;;;;;;;11.22;7.42;;;;;;;4.70;69.35;100095.57;1772284;79;21005;-36
2021/10/19 03:54:21;;;;;;;11.03;6.80;;;;;;;4.68;69.51;100095.09;1753138;81;21121;-36
2021/10/19 03:56:48;;;;;;;9.60;7.08;;;;;;;4.71;69.44;100095.83;1753068;80;20976;-37
2021/10/19 03:59:15;;;;;;;11.20;7.05;;;;;;;4.70;69.42;100100.40;1752682;81;21004;-36
2021/10/19 04:01:41;;;;;;;11.28;7.10;;;;;;;4.65;69.49;100101.85;1753088;81;21550;-36
2021/10/19 04:04:08;;;;;;;11.70;7.05;;;;;;;4.62;69.55;100105.15;1752924;81;20974;-36
2021/10/19 04:06:37;;;;;;;10.72;7.55;;;;;;;4.65;69.43;100097.03;1752931;80;20968;-36
2021/10/19 04:09:04;;;;;;;10.65;6.80;;;;;;;4.59;69.35;100104.42;1752859;81;21016;-36
2021/10/19 04:11:31;;;;;;;9.78;6.58;;;;;;;4.59;69.30;100101.73;1749036;81;20973;-36
2021/10/19 04:13:58;;;;;;;10.72;6.50;;;;;;;4.68;69.02;100099.92;1742547;82;21112;-36
2021/10/19 04:16:25;;;;;;;9.75;7.08;;;;;;;4.74;68.79;100108.09;1742825;82;21045;-36
2021/10/19 04:18:52;;;;;;;10.43;6.60;;;;;;;4.73;68.73;100106.53;1742532;82;21133;-36
2021/10/19 04:21:19;;;;;;;12.37;7.10;;;;;;;4.73;68.56;100116.48;1742629;82;21514;-36
2021/10/19 04:23:47;;;;;;;12.45;7.35;;;;;;;4.73;68.41;100119.95;1742024;81;20978;-36
2021/10/19 04:26:14;;;;;;;11.53;6.87;;;;;;;4.70;68.24;100123.77;1742221;81;21500;-36
2021/10/19 04:28:42;;;;;;;11.60;6.40;;;;;;;4.65;68.14;100125.22;1742167;81;21029;-36
2021/10/19 04:31:09;;;;;;;14.73;7.17;;;;;;;4.59;68.17;100124.56;1742159;82;21519;-36
2021/10/19 04:33:35;;;;;;;10.32;6.15;;;;;;;4.64;68.00;100125.80;1729635;82;21021;-36
2021/10/19 04:36:04;;;;;;;8.98;6.30;;;;;;;4.74;67.62;100132.84;1741970;82;20934;-36
2021/10/19 04:38:34;;;;;;;12.55;7.50;;;;;;;4.80;67.27;100127.59;1742031;81;21665;-36
2021/10/19 04:41:01;;;;;;;12.43;7.95;;;;;;;4.82;67.02;100130.78;1742414;81;21029;-36
2021/10/19 04:43:27;;;;;;;15.05;7.55;;;;;;;4.73;66.97;100137.42;1742071;82;21169;-36
2021/10/19 04:45:54;;;;;;;11.15;7.25;;;;;;;4.68;67.20;100138.87;1742358;82;21601;-36
2021/10/19 04:48:22;;;;;;;11.53;6.87;;;;;;;4.60;67.34;100144.92;1741912;81;21390;-36
2021/10/19 04:50:50;;;;;;;13.20;7.87;;;;;;;4.50;67.49;100142.48;1742547;81;21095;-36
2021/10/19 04:53:17;;;;;;;10.00;6.33;;;;;;;4.42;67.79;100144.50;1742178;82;21056;-36
2021/10/19 04:55:47;;;;;;;12.30;6.78;;;;;;;4.42;67.84;100149.08;1742246;81;21121;-36
2021/10/19 04:58:15;;;;;;;12.00;6.40;;;;;;;4.46;67.90;100146.83;1742048;82;20961;-36
2021/10/19 05:00:43;;;;;;;9.23;6.30;;;;;;;4.48;67.99;100147.88;1742534;81;20981;-36
2021/10/19 05:03:11;;;;;;;13.38;6.83;;;;;;;4.48;68.16;100150.02;1742277;81;21002;-36
2021/10/19 05:05:38;;;;;;;11.55;7.25;;;;;;;4.45;68.27;100157.89;1742571;82;21005;-36
2021/10/19 05:08:05;;;;;;;9.33;6.37;;;;;;;4.41;68.33;100161.70;1742114;81;21843;-36
2021/10/19 05:10:33;;;;;;;11.65;7.20;;;;;;;4.38;68.46;100168.47;1742210;82;20965;-36
2021/10/19 05:13:00;;;;;;;10.78;6.67;;;;;;;4.36;68.57;100160.45;1741905;81;21013;-36
2021/10/19 05:15:28;;;;;;;8.80;6.35;;;;;;;4.37;68.59;100164.73;1741986;82;21073;-36
2021/10/19 05:17:54;;;;;;;10.82;6.22;;;;;;;4.41;68.59;100173.78;1742076;82;21035;-36
2021/10/19 05:20:22;;;;;;;11.73;6.42;;;;;;;4.43;68.70;100171.60;1741863;81;21947;-36
2021/10/19 05:22:49;;;;;;;10.65;6.72;;;;;;;4.44;68.74;100179.91;1741966;81;21020;-36
2021/10/19 05:25:16;;;;;;;10.08;6.35;;;;;;;4.41;68.76;100182.38;1741998;82;21026;-36
2021/10/19 05:27:45;;;;;;;12.95;7.33;;;;;;;4.39;68.82;100186.72;1741910;82;21076;-36
2021/10/19 05:30:13;;;;;;;9.85;6.35;;;;;;;4.35;69.05;100185.73;1741936;82;21026;-37
2021/10/19 05:32:41;;;;;;;12.15;6.35;;;;;;;4.36;69.04;100187.30;1742205;81;20969;-36
2021/10/19 05:35:08;;;;;;;10.98;6.70;;;;;;;4.43;68.98;100192.28;1741755;82;21005;-36
2021/10/19 05:37:35;;;;;;;11.63;6.90;;;;;;;4.47;69.08;100195.95;1741985;82;20969;-36
2021/10/19 05:40:04;;;;;;;11.35;6.97;;;;;;;4.46;69.16;100193.81;1742051;81;20974;-36
2021/10/19 05:42:31;;;;;;;13.18;7.75;;;;;;;4.45;69.25;100200.30;1742327;82;21057;-36
2021/10/19 05:44:57;;;;;;;11.53;6.62;;;;;;;4.45;69.32;100198.96;1763118;79;21570;-36
2021/10/19 05:47:24;;;;;;;9.85;6.60;;;;;;;4.39;69.45;100192.09;1768957;79;20941;-36
2021/10/19 05:49:52;;;;;;;8.83;6.17;;;;;;;4.40;69.50;100201.74;1766293;81;21009;-36
2021/10/19 05:52:19;;;;;;;10.28;6.42;;;;;;;4.45;69.62;100202.19;1746504;81;21001;-36
2021/10/19 05:54:46;;;;;;;12.47;6.90;;;;;;;4.54;69.68;100205.77;1742017;82;21016;-36
2021/10/19 05:57:13;;;;;;;12.13;7.78;;;;;;;4.54;69.83;100198.52;1741987;82;21858;-36
2021/10/19 05:59:41;;;;;;;11.38;7.67;;;;;;;4.56;69.96;100207.05;1741792;82;20950;-36
2021/10/19 06:02:07;;;;;;;12.60;7.40;;;;;;;4.57;70.02;100207.84;1741982;82;21539;-36
2021/10/19 06:04:34;;;;;;;9.85;7.10;;;;;;;4.57;70.05;100209.98;1736955;81;20958;-36
2021/10/19 06:07:03;;;;;;;14.90;7.10;;;;;;;4.64;70.03;100207.71;1742198;82;21093;-36
2021/10/19 06:09:30;;;;;;;11.57;6.37;;;;;;;4.72;69.87;100204.31;1742339;82;21543;-36
2021/10/19 06:11:57;;;;;;;9.70;6.65;;;;;;;4.79;69.74;100207.95;1746596;80;20977;-36
2021/10/19 06:14:24;;;;;;;12.98;6.97;;;;;;;4.77;69.87;100210.92;1758112;81;20977;-36
2021/10/19 06:16:51;;;;;;;15.72;6.85;;;;;;;4.77;70.08;100213.61;1758019;81;21084;-36
2021/10/19 06:19:18;;;;;;;11.93;7.85;;;;;;;4.83;70.25;100209.48;1758161;81;21056;-36
2021/10/19 06:21:44;;;;;;;12.88;6.20;;;;;;;4.91;70.21;100214.94;1758106;81;21807;-36
2021/10/19 06:24:11;;;;;;;8.88;5.90;;;;;;;4.98;69.88;100210.52;1758304;81;21578;-36
2021/10/19 06:26:38;;;;;;;8.83;6.45;;;;;;;5.04;69.86;100215.45;1758103;81;21001;-36
2021/10/19 06:29:08;;;;;;;10.18;6.83;;;;;;;5.13;69.88;100214.98;1758097;81;20978;-36
2021/10/19 06:31:35;;;;;;;9.75;5.87;;;;;;;5.21;69.90;100223.70;1758090;81;21087;-36
2021/10/19 06:34:01;;;;;;;12.18;6.60;;;;;;;5.26;69.59;100221.45;1758314;81;21793;-37
2021/10/19 06:36:28;;;;;;;10.32;6.37;;;;;;;5.29;69.53;100225.41;1757950;81;20937;-36
2021/10/19 06:38:57;;;;;;;12.30;6.80;;;;;;;5.31;69.55;100222.67;1757904;81;21048;-36
2021/10/19 06:41:24;;;;;;;13.05;5.97;;;;;;;5.38;69.58;100217.66;1757821;81;21040;-37
2021/10/19 06:43:50;;;;;;;9.30;6.17;;;;;;;5.48;69.63;100224.16;1758297;81;21076;-37
2021/10/19 06:46:17;;;;;;;9.43;5.55;;;;;;;5.67;69.42;100226.66;1757687;81;21144;-36
2021/10/19 06:48:43;;;;;;;9.43;6.25;;;;;;;5.85;68.67;100230.30;1758126;81;21488;-36
2021/10/19 06:51:10;;;;;;;10.58;6.83;;;;;;;5.92;67.98;100232.02;1757925;80;21331;-36
2021/10/19 06:53:37;;;;;;;10.60;6.60;;;;;;;5.95;67.63;100234.11;1757976;81;20996;-37
2021/10/19 06:56:05;;;;;;;11.95;7.22;;;;;;;5.94;67.79;100227.93;1757821;81;21071;-36
2021/10/19 06:58:31;;;;;;;11.93;6.50;;;;;;;6.01;67.92;100223.44;1757995;81;21601;-37
2021/10/19 07:01:00;;;;;;;12.30;6.78;;;;;;;6.10;67.72;100231.02;1757942;81;21472;-36
2021/10/19 07:03:27;;;;;;;9.10;6.08;;;;;;;6.21;67.23;100228.31;1758092;81;21259;-36
2021/10/19 07:05:54;;;;;;;9.98;6.62;;;;;;;6.33;66.68;100232.58;1758031;81;20929;-36
2021/10/19 07:08:22;;;;;;;10.68;6.67;;;;;;;6.39;66.44;100235.36;1758203;81;21589;-37
2021/10/19 07:10:49;;;;;;;11.73;6.10;;;;;;;6.49;66.48;100239.69;1758209;81;21119;-37
2021/10/19 07:13:21;;;;;;;10.68;6.60;;;;;;;6.59;66.21;100237.27;1757876;81;21495;-36
2021/10/19 07:15:44;;;;;;;8.80;5.73;;;;;;;6.65;65.73;100237.37;1758290;81;20960;-37
2021/10/19 07:18:12;;;;;;;10.65;5.87;;;;;;;6.71;65.15;100240.18;1758034;81;21683;-36
2021/10/19 07:20:39;;;;;;;11.65;6.10;;;;;;;6.75;65.17;100234.41;1758013;81;21024;-37
2021/10/19 07:23:06;;;;;;;12.05;5.95;;;;;;;6.83;64.82;100232.28;1758156;81;21107;-36
2021/10/19 07:25:32;;;;;;;11.03;5.50;;;;;;;6.86;64.36;100235.71;1757903;81;20976;-36
2021/10/19 07:28:00;;;;;;;6.95;4.50;;;;;;;6.95;63.99;100231.13;1758283;81;20968;-37
2021/10/19 07:30:27;;;;;;;7.60;4.70;;;;;;;7.10;63.31;100235.29;1757971;81;21079;-37
2021/10/19 07:32:55;;;;;;;8.90;4.92;;;;;;;7.21;62.94;100237.34;1758195;81;21040;-36
2021/10/19 07:35:23;;;;;;;5.65;4.03;;;;;;;7.30;62.30;100238.18;1758102;81;21817;-36
2021/10/19 07:37:51;;;;;;;8.93;4.75;;;;;;;7.41;61.94;100231.34;1758686;81;21021;-36
2021/10/19 07:40:19;;;;;;;7.05;4.80;;;;;;;7.51;61.82;100241.58;1758132;81;21080;-36
2021/10/19 07:42:46;;;;;;;8.20;3.98;;;;;;;7.62;61.26;100233.41;1758714;81;21032;-36
2021/10/19 07:45:13;;;;;;;5.92;3.90;;;;;;;7.72;61.04;100235.80;1758244;81;21488;-36
2021/10/19 07:47:42;;;;;;;8.93;3.95;;;;;;;7.82;60.12;100235.47;1758269;81;21124;-37
2021/10/19 07:50:10;;;;;;;6.55;4.17;;;;;;;7.93;59.42;100238.08;1757915;81;20974;-37
2021/10/19 07:52:37;;;;;;;6.85;4.45;;;;;;;8.02;59.45;100238.86;1758646;80;21061;-36
2021/10/19 07:55:05;;;;;;;7.97;4.08;;;;;;;8.13;58.94;100242.78;1758171;81;21496;-36
2021/10/19 07:57:43;;;;;;;5.07;3.00;;;;;;;8.23;58.24;100243.80;1758233;81;21048;-36
2021/10/19 08:00:13;;;;;;;5.65;3.90;;;;;;;8.29;57.94;100235.80;1757999;81;21889;-37
2021/10/19 08:02:44;;;;;;;6.25;3.67;;;;;;;8.35;57.95;100246.42;1758468;81;21072;-37
2021/10/19 08:05:15;;;;;;;5.03;3.58;;;;;;;8.39;57.98;100246.02;1758140;81;21004;-36
2021/10/19 08:07:43;;;;;;;8.08;4.00;;;;;;;8.45;57.95;100246.08;1758521;81;21024;-37
2021/10/19 08:10:10;;;;;;;6.90;3.25;;;;;;;8.54;57.58;100243.58;1758420;81;21024;-37
2021/10/19 08:12:37;;;;;;;4.25;3.05;;;;;;;8.64;57.25;100254.59;1754064;81;21786;-36
2021/10/19 08:15:05;;;;;;;5.03;3.10;;;;;;;8.72;56.17;100254.55;1742216;82;20930;-36
2021/10/19 08:17:32;;;;;;;3.47;2.83;;;;;;;8.80;56.21;100257.00;1742519;81;21037;-37
2021/10/19 08:20:00;;;;;;;4.25;3.05;;;;;;;8.85;55.61;100254.66;1742384;81;20998;-37
2021/10/19 08:22:29;;;;;;;3.98;2.55;;;;;;;8.91;54.79;100258.19;1742488;82;21049;-36
2021/10/19 08:24:56;;;;;;;3.80;2.40;;;;;;;8.98;54.60;100261.19;1742409;82;21162;-36
2021/10/19 08:27:24;;;;;;;4.83;2.40;;;;;;;9.05;53.69;100265.51;1742203;81;21550;-36
2021/10/19 08:29:52;;;;;;;6.12;2.30;;;;;;;9.13;53.83;100267.95;1741877;81;21558;-37
2021/10/19 08:32:19;;;;;;;4.45;2.70;;;;;;;9.23;52.30;100269.48;1742065;82;21021;-36
2021/10/19 08:34:48;;;;;;;4.15;2.12;;;;;;;9.28;52.08;100261.97;1742366;81;21024;-37
2021/10/19 08:37:15;;;;;;;2.95;2.00;;;;;;;9.33;51.98;100271.80;1742377;82;21498;-36
2021/10/19 08:39:42;;;;;;;5.12;2.00;;;;;;;9.40;51.79;100259.33;1742344;82;20982;-37
2021/10/19 08:42:08;;;;;;;5.42;2.22;;;;;;;9.46;50.93;100262.62;1742414;81;20938;-37
2021/10/19 08:44:36;;;;;;;3.92;2.02;;;;;;;9.49;50.72;100266.81;1742416;82;21021;-37
2021/10/19 08:47:02;;;;;;;6.40;2.00;;;;;;;9.59;50.65;100274.55;1742858;82;20995;-37
2021/10/19 08:49:29;;;;;;;3.83;1.77;;;;;;;9.74;50.95;100271.01;1742481;82;21614;-37
2021/10/19 08:51:56;;;;;;;5.15;2.15;;;;;;;9.92;49.53;100269.16;1742354;81;21519;-37
2021/10/19 08:54:23;;;;;;;2.37;1.57;;;;;;;10.14;49.55;100271.28;1742098;82;21025;-37
2021/10/19 08:56:50;;;;;;;3.90;1.90;;;;;;;10.31;47.70;100273.28;1742427;81;21588;-37
2021/10/19 08:59:22;;;;;;;1.90;1.20;;;;;;;10.40;46.88;100278.63;1742036;82;21606;-37
2021/10/19 09:01:49;;;;;;;2.27;1.15;;;;;;;10.40;44.45;100282.14;1742412;82;21094;-37
2021/10/19 09:04:16;;;;;;;3.35;1.35;;;;;;;10.40;43.44;100279.98;1741922;82;20998;-37
2021/10/19 09:06:44;;;;;;;2.87;1.52;;;;;;;10.46;44.56;100285.40;1742145;81;20973;-37
2021/10/19 09:09:16;;;;;;;2.83;1.60;;;;;;;10.55;44.46;100284.77;1742066;82;21017;-37
2021/10/19 09:11:45;;;;;;;6.37;1.62;;;;;;;10.62;45.59;100279.56;1742594;82;21033;-37
2021/10/19 09:14:12;;;;;;;5.65;1.70;;;;;;;10.73;43.91;100283.98;1741979;81;21523;-37
2021/10/19 09:16:44;;;;;;;4.67;1.65;;;;;;;10.79;43.98;100285.36;1742798;81;20997;-37
2021/10/19 09:19:13;;;;;;;4.25;1.67;;;;;;;10.80;44.16;100283.64;1736326;81;21507;-37
2021/10/19 09:21:49;;;;;;;3.65;1.70;;;;;;;10.78;44.90;100278.34;1742293;82;21519;-37
2021/10/19 09:24:19;;;;;;;4.83;1.87;;;;;;;10.78;44.45;100283.20;1742087;81;21049;-37
2021/10/19 09:26:57;;;;;;;3.62;1.87;;;;;;;10.81;44.89;100274.38;1742911;82;21084;-37
2021/10/19 09:29:26;;;;;;;11.28;2.40;;;;;;;10.85;44.70;100284.78;1742003;82;21004;-37
2021/10/19 09:31:55;;;;;;;4.03;1.80;;;;;;;10.90;45.15;100281.05;1742535;81;21069;-37
2021/10/19 09:34:22;;;;;;;2.75;1.80;;;;;;;11.02;45.45;100268.06;1742451;82;21092;-37
2021/10/19 09:36:51;;;;;;;2.72;1.80;;;;;;;11.15;44.70;100268.27;1742454;81;21056;-36
2021/10/19 09:39:41;;;;;;;3.20;1.67;;;;;;;11.25;43.41;100277.30;1742188;82;21071;-37
2021/10/19 09:42:18;;;;;;;3.05;1.70;;;;;;;11.32;43.11;100272.91;1742159;81;21747;-37
2021/10/19 09:44:58;;;;;;;3.87;1.32;;;;;;;11.41;43.75;100279.55;1742189;82;20965;-37
2021/10/19 09:47:39;;;;;;;2.05;1.47;;;;;;;11.56;42.23;100274.77;1737536;81;21496;-37
2021/10/19 09:50:09;;;;;;;3.42;1.60;;;;;;;11.71;41.05;100268.59;1742025;82;21041;-37
2021/10/19 09:52:40;;;;;;;3.10;1.65;;;;;;;11.85;41.60;100268.83;1742404;81;22672;-36
2021/10/19 09:55:10;;;;;;;2.65;1.75;;;;;;;12.02;40.29;100278.03;1742037;82;21000;-37
2021/10/19 09:57:44;;;;;;;4.62;1.70;;;;;;;12.16;41.21;100271.62;1741990;82;20934;-37
2021/10/19 10:00:11;;;;;;;2.05;1.45;;;;;;;12.27;40.35;100259.67;1742064;82;20973;-37
2021/10/19 10:02:39;;;;;;;2.15;1.47;;;;;;;12.32;38.72;100262.94;1742370;82;21033;-37
2021/10/19 10:05:07;;;;;;;2.70;1.65;;;;;;;12.40;38.67;100261.17;1741961;82;21081;-37
2021/10/19 10:07:37;;;;;;;2.25;1.70;;;;;;;12.47;38.34;100264.88;1742226;82;20934;-37
2021/10/19 10:10:06;;;;;;;2.60;1.62;;;;;;;12.52;37.82;100264.63;1729431;82;20938;-37
2021/10/19 10:12:34;;;;;;;2.55;1.50;;;;;;;12.51;37.19;100252.16;1742334;82;21759;-36
2021/10/19 10:15:00;;;;;;;2.92;1.50;;;;;;;12.47;36.93;100255.37;1742324;82;20998;-37
2021/10/19 10:17:28;;;;;;;5.25;1.87;;;;;;;12.45;37.62;100252.76;1742176;81;20950;-37
2021/10/19 10:20:07;;;;;;;3.67;1.90;;;;;;;12.52;38.65;100255.67;1742303;82;21025;-37
2021/10/19 10:22:43;;;;;;;3.33;1.60;;;;;;;12.64;38.34;100259.09;1742400;82;20982;-37
2021/10/19 10:25:15;;;;;;;4.22;1.87;;;;;;;12.64;36.96;100249.56;1741956;82;21522;-37
2021/10/19 10:27:43;;;;;;;2.90;1.90;;;;;;;12.57;37.30;100250.77;1742389;82;21854;-38
2021/10/19 10:30:23;;;;;;;4.08;1.90;;;;;;;12.57;37.63;100248.61;1741993;81;21148;-37
2021/10/19 10:32:50;;;;;;;5.58;1.70;;;;;;;12.68;37.15;100250.24;1741575;82;21583;-37
2021/10/19 10:35:18;;;;;;;2.75;1.98;;;;;;;12.81;36.59;100252.52;1741914;81;20969;-37
2021/10/19 10:37:51;;;;;;;2.72;1.80;;;;;;;12.93;37.22;100247.52;1742183;82;21472;-37
2021/10/19 10:40:41;;;;;;;2.22;1.52;;;;;;;13.07;37.14;100250.57;1741999;82;21060;-37
2021/10/19 10:43:25;;;;;;;4.60;1.70;;;;;;;13.16;35.25;100244.42;1742207;81;21544;-37
2021/10/19 10:46:12;;;;;;;3.37;1.70;;;;;;;13.16;35.84;100244.42;1741939;82;20961;-37
2021/10/19 10:48:39;;;;;;;3.05;1.80;;;;;;;13.20;35.49;100241.20;1742501;82;21096;-37
2021/10/19 10:51:07;;;;;;;2.85;1.90;;;;;;;13.25;35.76;100231.39;1742234;81;21017;-37
2021/10/19 10:53:44;;;;;;;3.55;2.10;;;;;;;13.37;35.08;100239.99;1742634;81;20958;-37
2021/10/19 10:56:13;;;;;;;3.02;1.85;;;;;;;13.48;34.61;100241.81;1742141;82;21122;-37
2021/10/19 10:58:42;;;;;;;3.47;1.72;;;;;;;13.60;33.83;100240.11;1742399;82;21044;-37
2021/10/19 11:01:19;;;;;;;2.20;1.62;;;;;;;13.63;32.07;100233.93;1742490;82;21076;-37
2021/10/19 11:03:48;;;;;;;2.95;2.00;;;;;;;13.68;32.79;100245.91;1742341;82;21045;-37
2021/10/19 11:06:17;;;;;;;4.78;2.20;;;;;;;13.69;32.86;100235.23;1742172;82;21543;-37
2021/10/19 11:08:50;;;;;;;3.47;2.10;;;;;;;13.69;32.93;100238.75;1742270;82;21162;-37
2021/10/19 11:11:19;;;;;;;3.25;2.00;;;;;;;13.71;33.59;100236.44;1741428;81;21045;-37
2021/10/19 11:13:54;;;;;;;4.62;1.98;;;;;;;13.82;32.90;100238.02;1742187;81;21467;-37
2021/10/19 11:16:43;;;;;;;3.62;2.10;;;;;;;13.91;32.31;100236.65;1742314;82;21017;-37
2021/10/19 11:19:23;;;;;;;4.72;1.77;;;;;;;13.95;32.21;100232.62;1742811;82;21055;-37
2021/10/19 11:21:53;;;;;;;3.10;2.08;;;;;;;14.01;32.72;100235.27;1742530;82;21092;-37
2021/10/19 11:24:22;;;;;;;3.05;1.90;;;;;;;14.11;32.75;100226.50;1742427;82;21003;-37
2021/10/19 11:26:48;;;;;;;2.75;2.00;;;;;;;14.19;32.39;100230.92;1742652;82;21545;-37
2021/10/19 11:29:16;;;;;;;4.17;2.00;;;;;;;14.21;31.88;100227.84;1742549;82;21569;-37
2021/10/19 11:31:43;;;;;;;2.87;1.98;;;;;;;14.28;32.20;100226.63;1742492;82;21016;-37